createdAt,value
2018-08-13T00:00:08.920Z,96.50
2018-08-13T00:02:37.556Z,96.90
2018-08-13T00:05:06.184Z,96.40
2018-08-13T00:07:34.884Z,96.40
2018-08-13T00:10:04.617Z,96.40
2018-08-13T00:12:33.316Z,97.40
2018-08-13T00:15:01.962Z,97.00
2018-08-13T00:17:30.678Z,97.30
2018-08-13T00:19:59.341Z,97.10
2018-08-13T00:22:27.989Z,96.70
2018-08-13T00:24:56.660Z,96.70
2018-08-13T00:27:25.305Z,96.60
2018-08-13T00:29:53.924Z,96.50
2018-08-13T00:32:22.606Z,96.20
2018-08-13T00:34:51.292Z,96.60
2018-08-13T00:37:19.928Z,96.00
2018-08-13T00:39:48.572Z,95.70
2018-08-13T00:42:18.201Z,95.30
2018-08-13T00:44:46.973Z,95.90
2018-08-13T00:47:15.748Z,95.90
2018-08-13T00:49:44.375Z,96.60
2018-08-13T00:52:13.122Z,97.10
2018-08-13T00:54:41.859Z,97.80
2018-08-13T00:57:10.921Z,97.80
2018-08-13T00:59:41.572Z,98.10
2018-08-13T01:02:10.893Z,97.30
2018-08-13T01:04:40.155Z,97.90
2018-08-13T01:07:08.795Z,98.30
2018-08-13T01:09:37.433Z,98.10
2018-08-13T01:12:06.164Z,98.30
2018-08-13T01:14:34.817Z,99.30
2018-08-13T01:17:03.512Z,99.90
2018-08-13T01:19:32.208Z,99.90
2018-08-13T01:22:00.932Z,99.40
2018-08-13T01:24:29.562Z,98.70
2018-08-13T01:26:58.252Z,99.40
2018-08-13T01:29:26.877Z,99.20
2018-08-13T01:31:55.548Z,99.20
2018-08-13T01:34:24.203Z,98.80
2018-08-13T01:36:52.863Z,99.10
2018-08-13T01:39:21.496Z,99.30
2018-08-13T01:41:50.135Z,99.20
2018-08-13T01:44:18.789Z,99.10
2018-08-13T01:46:47.520Z,98.80
2018-08-13T01:49:16.217Z,99.30
2018-08-13T01:51:44.902Z,99.50
2018-08-13T01:54:13.571Z,99.20
2018-08-13T01:56:42.225Z,99.40
2018-08-13T01:59:10.936Z,99.70
2018-08-13T02:01:39.629Z,99.90
2018-08-13T02:04:08.304Z,99.90
2018-08-13T02:06:36.967Z,99.90
2018-08-13T02:09:08.210Z,99.90
2018-08-13T02:11:36.974Z,99.90
2018-08-13T02:14:06.151Z,99.90
2018-08-13T02:16:34.852Z,99.90
2018-08-13T02:19:03.680Z,99.90
2018-08-13T02:21:32.427Z,99.90
2018-08-13T02:24:01.121Z,99.90
2018-08-13T02:26:29.730Z,99.90
2018-08-13T02:28:58.383Z,99.90
2018-08-13T02:31:27.004Z,99.90
2018-08-13T02:33:55.644Z,99.90
2018-08-13T02:36:24.255Z,99.90
2018-08-13T02:38:52.944Z,99.90
2018-08-13T02:41:21.659Z,99.90
2018-08-13T02:43:50.426Z,99.90
2018-08-13T02:46:19.100Z,99.90
2018-08-13T02:48:47.872Z,99.90
2018-08-13T02:51:16.604Z,99.90
2018-08-13T02:53:45.293Z,99.90
2018-08-13T02:56:13.921Z,99.90
2018-08-13T02:58:42.600Z,99.90
2018-08-13T03:01:11.265Z,99.90
2018-08-13T03:03:39.965Z,99.90
2018-08-13T03:06:08.656Z,99.90
2018-08-13T03:08:37.294Z,99.90
2018-08-13T03:11:06.064Z,99.90
2018-08-13T03:13:34.776Z,99.90
2018-08-13T03:16:03.482Z,99.90
2018-08-13T03:18:32.264Z,99.90
2018-08-13T03:21:00.908Z,99.90
2018-08-13T03:23:29.653Z,99.90
2018-08-13T03:25:58.422Z,99.90
2018-08-13T03:28:27.096Z,99.90
2018-08-13T03:30:55.827Z,99.90
2018-08-13T03:33:24.513Z,99.90
2018-08-13T03:35:53.187Z,99.90
2018-08-13T03:38:21.894Z,99.90
2018-08-13T03:40:50.551Z,99.90
2018-08-13T03:43:19.207Z,99.90
2018-08-13T03:45:47.895Z,99.90
2018-08-13T03:48:16.625Z,99.90
2018-08-13T03:50:45.408Z,99.90
2018-08-13T03:53:14.106Z,99.90
2018-08-13T03:55:42.883Z,99.90
2018-08-13T03:58:11.582Z,99.90
2018-08-13T04:00:40.259Z,99.90
2018-08-13T04:03:08.959Z,99.90
2018-08-13T04:05:37.609Z,99.90
2018-08-13T04:08:06.521Z,99.90
2018-08-13T04:10:35.219Z,99.90
2018-08-13T04:13:03.993Z,99.90
2018-08-13T04:15:32.659Z,99.90
2018-08-13T04:18:01.312Z,99.90
2018-08-13T04:20:30.021Z,99.90
2018-08-13T04:22:58.695Z,99.90
2018-08-13T04:25:27.351Z,99.90
2018-08-13T04:27:55.986Z,99.90
2018-08-13T04:30:24.604Z,99.90
2018-08-13T04:32:53.241Z,99.90
2018-08-13T04:35:21.892Z,99.90
2018-08-13T04:37:50.552Z,99.90
2018-08-13T04:40:19.305Z,99.90
2018-08-13T04:42:48.279Z,99.90
2018-08-13T04:45:16.979Z,99.90
2018-08-13T04:47:52.890Z,99.90
2018-08-13T04:50:21.754Z,99.90
2018-08-13T04:52:50.836Z,99.90
2018-08-13T04:55:20.199Z,99.90
2018-08-13T04:57:48.975Z,99.90
2018-08-13T05:00:17.647Z,99.90
2018-08-13T05:02:46.295Z,99.90
2018-08-13T05:05:14.945Z,99.90
2018-08-13T05:07:43.740Z,99.90
2018-08-13T05:10:12.476Z,99.90
2018-08-13T05:12:41.516Z,99.90
2018-08-13T05:15:11.020Z,99.90
2018-08-13T05:17:39.764Z,99.90
2018-08-13T05:20:09.060Z,99.90
2018-08-13T05:22:37.728Z,99.90
2018-08-13T05:25:07.612Z,99.90
2018-08-13T05:27:36.273Z,99.90
2018-08-13T05:30:06.607Z,99.90
2018-08-13T05:32:35.231Z,99.90
2018-08-13T05:35:04.575Z,99.90
2018-08-13T05:37:33.244Z,99.90
2018-08-13T05:40:01.968Z,99.90
2018-08-13T05:42:30.691Z,99.90
2018-08-13T05:44:59.396Z,99.90
2018-08-13T05:47:28.156Z,99.90
2018-08-13T05:49:56.874Z,99.90
2018-08-13T05:52:25.658Z,99.90
2018-08-13T05:54:54.289Z,99.90
2018-08-13T05:57:23.020Z,99.90
2018-08-13T05:59:51.723Z,99.90
2018-08-13T06:02:20.388Z,99.90
2018-08-13T06:04:49.044Z,99.90
2018-08-13T06:07:17.664Z,99.90
2018-08-13T06:09:46.301Z,99.90
2018-08-13T06:12:15.036Z,99.90
2018-08-13T06:14:43.704Z,99.90
2018-08-13T06:17:12.341Z,99.90
2018-08-13T06:19:41.006Z,99.90
2018-08-13T06:22:09.652Z,99.90
2018-08-13T06:24:38.292Z,99.90
2018-08-13T06:27:07.020Z,99.90
2018-08-13T06:29:36.241Z,99.90
2018-08-13T06:32:05.061Z,99.90
2018-08-13T06:34:33.683Z,98.20
2018-08-13T06:37:02.387Z,97.40
2018-08-13T06:39:31.106Z,95.60
2018-08-13T06:41:59.827Z,94.70
2018-08-13T06:44:28.504Z,93.80
2018-08-13T06:46:57.130Z,92.10
2018-08-13T06:49:25.820Z,91.40
2018-08-13T06:51:54.460Z,90.70
2018-08-13T06:54:23.143Z,89.80
2018-08-13T06:56:51.844Z,87.90
2018-08-13T06:59:20.523Z,85.80
2018-08-13T07:01:49.140Z,82.90
2018-08-13T07:04:17.860Z,81.60
2018-08-13T07:06:46.628Z,80.90
2018-08-13T07:09:15.280Z,79.20
2018-08-13T07:11:43.940Z,78.90
2018-08-13T07:14:12.673Z,76.90
2018-08-13T07:16:41.344Z,74.10
2018-08-13T07:19:10.080Z,72.70
2018-08-13T07:21:38.909Z,71.80
2018-08-13T07:24:07.629Z,71.70
2018-08-13T07:26:36.263Z,70.60
2018-08-13T07:29:04.961Z,69.70
2018-08-13T07:31:34.617Z,68.50
2018-08-13T07:34:03.251Z,68.70
2018-08-13T07:36:31.931Z,69.60
2018-08-13T07:39:00.684Z,70.10
2018-08-13T07:41:29.421Z,68.60
2018-08-13T07:43:58.080Z,68.20
2018-08-13T07:46:26.790Z,67.10
2018-08-13T07:48:55.604Z,66.10
2018-08-13T07:51:24.398Z,65.10
2018-08-13T07:53:53.085Z,64.80
2018-08-13T07:56:21.744Z,64.00
2018-08-13T07:58:50.393Z,65.10
2018-08-13T08:01:19.136Z,65.90
2018-08-13T08:03:47.849Z,66.80
2018-08-13T08:06:16.487Z,66.70
2018-08-13T08:08:45.200Z,66.60
2018-08-13T08:11:14.017Z,67.60
2018-08-13T08:13:42.731Z,67.20
2018-08-13T08:16:11.568Z,66.90
2018-08-13T08:18:40.217Z,68.50
2018-08-13T08:21:08.981Z,68.30
2018-08-13T08:23:37.640Z,69.90
2018-08-13T08:26:06.299Z,69.50
2018-08-13T08:28:35.129Z,69.10
2018-08-13T08:31:03.824Z,69.70
2018-08-13T08:33:32.640Z,69.90
2018-08-13T08:36:01.388Z,70.50
2018-08-13T08:38:31.023Z,71.00
2018-08-13T08:40:59.880Z,69.50
2018-08-13T08:43:28.602Z,71.10
2018-08-13T08:45:57.462Z,70.40
2018-08-13T08:48:26.145Z,70.80
2018-08-13T08:50:54.831Z,71.60
2018-08-13T08:53:23.573Z,71.20
2018-08-13T08:55:52.332Z,72.30
2018-08-13T08:58:20.964Z,71.60
2018-08-13T09:00:49.618Z,70.70
2018-08-13T09:03:18.256Z,69.10
2018-08-13T09:05:46.998Z,70.40
2018-08-13T09:08:15.789Z,71.40
2018-08-13T09:10:44.362Z,71.00
2018-08-13T09:13:13.067Z,70.20
2018-08-13T09:15:41.814Z,69.80
2018-08-13T09:18:21.352Z,68.40
2018-08-13T09:21:00.912Z,66.60
2018-08-13T09:23:40.323Z,66.40
2018-08-13T09:26:19.717Z,64.00
2018-08-13T09:28:59.272Z,64.70
2018-08-13T09:31:38.860Z,63.70
2018-08-13T09:34:18.276Z,63.60
2018-08-13T09:36:47.071Z,65.40
2018-08-13T09:39:15.751Z,64.70
2018-08-13T09:41:44.470Z,65.60
2018-08-13T09:44:13.120Z,64.00
2018-08-13T09:46:41.769Z,63.60
2018-08-13T09:49:10.449Z,62.60
2018-08-13T09:51:39.105Z,63.40
2018-08-13T09:54:07.864Z,62.40
2018-08-13T09:56:36.503Z,64.80
2018-08-13T09:59:05.200Z,63.30
2018-08-13T10:01:33.844Z,61.70
2018-08-13T10:04:02.672Z,62.90
2018-08-13T10:06:31.343Z,61.00
2018-08-13T10:08:59.979Z,62.20
2018-08-13T10:11:28.647Z,63.10
2018-08-13T10:13:57.980Z,63.20
2018-08-13T10:16:26.624Z,63.40
2018-08-13T10:18:55.368Z,62.10
2018-08-13T10:21:24.003Z,61.70
2018-08-13T10:23:52.669Z,62.00
2018-08-13T10:26:21.308Z,60.70
2018-08-13T10:28:49.983Z,60.40
2018-08-13T10:31:18.638Z,60.30
2018-08-13T10:33:47.368Z,59.90
2018-08-13T10:36:16.003Z,59.00
2018-08-13T10:38:44.664Z,58.20
2018-08-13T10:41:13.480Z,59.10
2018-08-13T10:43:42.229Z,58.80
2018-08-13T10:46:10.866Z,59.30
2018-08-13T10:48:39.540Z,59.30
2018-08-13T10:51:08.308Z,58.70
2018-08-13T10:53:37.052Z,58.00
2018-08-13T10:56:05.926Z,58.10
2018-08-13T10:58:34.628Z,58.20
2018-08-13T11:01:03.401Z,58.20
2018-08-13T11:03:32.120Z,57.40
2018-08-13T11:06:00.883Z,57.20
2018-08-13T11:08:29.605Z,56.70
2018-08-13T11:10:58.308Z,56.20
2018-08-13T11:13:27.014Z,55.60
2018-08-13T11:15:55.703Z,56.70
2018-08-13T11:18:24.381Z,56.60
2018-08-13T11:20:53.091Z,56.50
2018-08-13T11:23:21.739Z,55.70
2018-08-13T11:25:50.524Z,56.00
2018-08-13T11:28:19.173Z,56.10
2018-08-13T11:30:47.815Z,55.30
2018-08-13T11:33:16.541Z,55.20
2018-08-13T11:35:45.263Z,54.70
2018-08-13T11:38:13.956Z,55.50
2018-08-13T11:40:42.684Z,56.20
2018-08-13T11:43:11.368Z,56.20
2018-08-13T11:45:40.060Z,56.60
2018-08-13T11:48:08.761Z,56.30
2018-08-13T11:50:37.439Z,56.30
2018-08-13T11:53:06.150Z,56.80
2018-08-13T11:55:35.820Z,56.50
2018-08-13T11:58:04.569Z,56.30
2018-08-13T12:00:33.212Z,56.20
2018-08-13T12:03:01.903Z,56.10
2018-08-13T12:05:30.603Z,57.20
2018-08-13T12:07:59.262Z,55.00
2018-08-13T12:10:27.913Z,54.80
2018-08-13T12:12:56.553Z,54.10
2018-08-13T12:15:25.202Z,55.10
2018-08-13T12:17:53.853Z,54.70
2018-08-13T12:20:22.577Z,54.00
2018-08-13T12:22:51.205Z,53.50
2018-08-13T12:25:25.363Z,54.20
2018-08-13T12:27:54.468Z,54.10
2018-08-13T12:30:23.162Z,53.80
2018-08-13T12:32:52.744Z,52.70
2018-08-13T12:35:21.495Z,53.70
2018-08-13T12:37:50.458Z,53.60
2018-08-13T12:40:19.348Z,54.90
2018-08-13T12:42:48.144Z,54.40
2018-08-13T12:45:17.644Z,54.20
2018-08-13T12:47:46.384Z,53.90
2018-08-13T12:50:17.673Z,54.40
2018-08-13T12:52:47.692Z,54.60
2018-08-13T12:55:16.624Z,54.10
2018-08-13T12:57:45.506Z,54.80
2018-08-13T13:00:16.479Z,53.90
2018-08-13T13:02:45.236Z,54.50
2018-08-13T13:05:15.338Z,54.10
2018-08-13T13:07:44.014Z,53.60
2018-08-13T13:10:14.203Z,54.10
2018-08-13T13:12:43.334Z,52.80
2018-08-13T13:15:14.527Z,53.10
2018-08-13T13:17:43.248Z,52.40
2018-08-13T13:20:16.132Z,53.20
2018-08-13T13:22:45.490Z,52.20
2018-08-13T13:25:14.317Z,51.50
2018-08-13T13:27:43.013Z,51.90
2018-08-13T13:30:13.720Z,52.20
2018-08-13T13:32:42.759Z,52.40
2018-08-13T13:35:13.115Z,51.20
2018-08-13T13:37:41.840Z,52.20
2018-08-13T13:40:15.283Z,52.40
2018-08-13T13:42:44.283Z,52.40
2018-08-13T13:45:13.659Z,53.30
2018-08-13T13:47:43.728Z,53.50
2018-08-13T13:50:14.596Z,52.30
2018-08-13T13:52:43.940Z,52.60
2018-08-13T13:55:14.265Z,51.70
2018-08-13T13:57:42.963Z,53.40
2018-08-13T14:00:17.258Z,52.80
2018-08-13T14:02:47.496Z,53.80
2018-08-13T14:05:17.486Z,52.80
2018-08-13T14:07:46.452Z,53.00
2018-08-13T14:10:21.145Z,53.30
2018-08-13T14:12:51.372Z,52.50
2018-08-13T14:15:23.390Z,53.40
2018-08-13T14:18:05.351Z,53.60
2018-08-13T14:20:34.089Z,54.50
2018-08-13T14:23:02.855Z,55.40
2018-08-13T14:25:31.589Z,54.90
2018-08-13T14:28:00.413Z,54.90
2018-08-13T14:30:29.204Z,54.90
2018-08-13T14:33:02.638Z,55.20
2018-08-13T14:35:33.076Z,54.70
2018-08-13T14:38:09.740Z,55.30
2018-08-13T14:40:39.880Z,54.30
2018-08-13T14:43:08.758Z,55.30
2018-08-13T14:45:39.411Z,55.70
2018-08-13T14:48:08.218Z,55.70
2018-08-13T14:50:36.844Z,56.20
2018-08-13T14:53:06.228Z,57.20
2018-08-13T14:55:36.009Z,57.70
2018-08-13T14:58:04.779Z,58.40
2018-08-13T15:00:35.090Z,59.00
2018-08-13T15:03:07.724Z,59.30
2018-08-13T15:05:37.324Z,59.70
2018-08-13T15:08:06.519Z,59.40
2018-08-13T15:10:35.519Z,59.40
2018-08-13T15:13:04.847Z,59.30
2018-08-13T15:15:33.944Z,59.60
2018-08-13T15:18:03.946Z,59.40
2018-08-13T15:20:33.379Z,59.30
2018-08-13T15:23:02.198Z,58.80
2018-08-13T15:25:31.260Z,58.60
2018-08-13T15:28:00.358Z,58.70
2018-08-13T15:30:29.220Z,58.60
2018-08-13T15:32:59.694Z,58.60
2018-08-13T15:35:29.056Z,59.60
2018-08-13T15:37:57.986Z,59.10
2018-08-13T15:40:26.949Z,59.30
2018-08-13T15:42:56.151Z,58.90
2018-08-13T15:45:25.036Z,59.10
2018-08-13T15:47:54.348Z,58.90
2018-08-13T15:50:23.904Z,58.80
2018-08-13T15:52:53.060Z,58.80
2018-08-13T15:55:21.878Z,59.60
2018-08-13T15:57:50.921Z,59.80
2018-08-13T16:00:22.743Z,59.70
2018-08-13T16:02:52.499Z,59.10
2018-08-13T16:05:21.878Z,59.40
2018-08-13T16:07:51.385Z,59.40
2018-08-13T16:10:20.964Z,59.90
2018-08-13T16:12:49.672Z,59.70
2018-08-13T16:15:18.592Z,59.30
2018-08-13T16:17:50.896Z,59.40
2018-08-13T16:20:20.175Z,59.70
2018-08-13T16:22:49.392Z,59.70
2018-08-13T16:25:18.565Z,59.70
2018-08-13T16:27:47.560Z,59.60
2018-08-13T16:30:19.333Z,59.60
2018-08-13T16:32:48.393Z,59.90
2018-08-13T16:35:23.550Z,59.90
2018-08-13T16:37:52.391Z,60.30
2018-08-13T16:40:26.504Z,60.70
2018-08-13T16:42:55.451Z,61.10
2018-08-13T16:45:31.362Z,60.90
2018-08-13T16:48:00.376Z,62.00
2018-08-13T16:50:33.423Z,62.10
2018-08-13T16:53:03.990Z,62.40
2018-08-13T16:55:34.465Z,62.70
2018-08-13T16:58:03.448Z,61.90
2018-08-13T17:00:32.968Z,62.70
2018-08-13T17:03:02.805Z,62.80
2018-08-13T17:05:33.231Z,63.10
2018-08-13T17:08:01.975Z,64.50
2018-08-13T17:10:30.767Z,65.00
2018-08-13T17:12:59.788Z,65.70
2018-08-13T17:15:30.456Z,65.00
2018-08-13T17:18:00.515Z,65.90
2018-08-13T17:20:32.128Z,65.80
2018-08-13T17:23:01.049Z,66.20
2018-08-13T17:25:29.713Z,65.30
2018-08-13T17:27:58.450Z,65.50
2018-08-13T17:30:28.098Z,66.10
2018-08-13T17:32:58.225Z,65.90
2018-08-13T17:35:28.918Z,65.40
2018-08-13T17:37:57.933Z,65.90
2018-08-13T17:40:26.928Z,67.60
2018-08-13T17:42:56.311Z,68.30
2018-08-13T17:45:25.192Z,68.10
2018-08-13T17:47:54.331Z,67.20
2018-08-13T17:50:23.440Z,68.00
2018-08-13T17:52:52.319Z,69.70
2018-08-13T17:55:21.356Z,66.90
2018-08-13T17:57:50.184Z,66.30
2018-08-13T18:00:21.779Z,66.70
2018-08-13T18:02:51.056Z,67.50
2018-08-13T18:05:21.861Z,66.90
2018-08-13T18:07:50.955Z,66.70
2018-08-13T18:10:22.537Z,66.10
2018-08-13T18:12:51.366Z,66.10
2018-08-13T18:15:20.117Z,66.30
2018-08-13T18:17:49.395Z,66.70
2018-08-13T18:20:18.164Z,67.40
2018-08-13T18:22:46.840Z,67.20
2018-08-13T18:25:15.944Z,67.20
2018-08-13T18:27:45.925Z,66.80
2018-08-13T18:30:18.728Z,67.40
2018-08-13T18:32:47.576Z,67.10
2018-08-13T18:35:16.378Z,66.60
2018-08-13T18:37:45.172Z,67.00
2018-08-13T18:40:17.560Z,67.50
2018-08-13T18:42:46.501Z,67.70
2018-08-13T18:45:15.404Z,67.70
2018-08-13T18:47:44.178Z,67.50
2018-08-13T18:50:14.848Z,67.90
2018-08-13T18:52:46.608Z,68.40
2018-08-13T18:55:17.732Z,68.80
2018-08-13T18:57:46.988Z,69.00
2018-08-13T19:00:17.080Z,69.10
2018-08-13T19:02:45.863Z,69.90
2018-08-13T19:05:15.853Z,70.40
2018-08-13T19:07:45.308Z,71.20
2018-08-13T19:10:14.911Z,72.10
2018-08-13T19:12:43.564Z,72.50
2018-08-13T19:15:14.584Z,73.60
2018-08-13T19:17:43.318Z,73.80
2018-08-13T19:20:13.180Z,73.70
2018-08-13T19:22:42.340Z,74.20
2018-08-13T19:25:27.590Z,75.20
2018-08-13T19:27:56.426Z,76.60
2018-08-13T19:30:25.707Z,76.80
2018-08-13T19:32:54.740Z,77.30
2018-08-13T19:35:23.419Z,77.00
2018-08-13T19:37:52.143Z,77.70
2018-08-13T19:40:22.597Z,78.50
2018-08-13T19:42:51.584Z,79.60
2018-08-13T19:45:21.104Z,79.10
2018-08-13T19:47:50.407Z,78.90
2018-08-13T19:50:19.181Z,79.60
2018-08-13T19:52:48.692Z,79.50
2018-08-13T19:55:17.908Z,80.40
2018-08-13T19:57:46.700Z,80.90
2018-08-13T20:00:18.305Z,80.90
2018-08-13T20:02:47.596Z,80.40
2018-08-13T20:05:16.832Z,80.60
2018-08-13T20:07:45.530Z,81.60
2018-08-13T20:10:15.012Z,80.80
2018-08-13T20:12:44.341Z,81.20
2018-08-13T20:15:13.160Z,81.40
2018-08-13T20:17:42.307Z,81.30
2018-08-13T20:20:12.657Z,82.00
2018-08-13T20:22:41.737Z,81.80
2018-08-13T20:25:11.895Z,82.40
2018-08-13T20:27:40.663Z,82.50
2018-08-13T20:30:11.761Z,82.40
2018-08-13T20:32:40.407Z,83.10
2018-08-13T20:35:09.156Z,83.00
2018-08-13T20:37:37.797Z,83.30
2018-08-13T20:40:08.666Z,83.50
2018-08-13T20:42:37.528Z,83.50
2018-08-13T20:45:08.118Z,83.80
2018-08-13T20:47:36.802Z,84.60
2018-08-13T20:50:07.764Z,84.70
2018-08-13T20:52:36.472Z,84.50
2018-08-13T20:55:07.719Z,84.30
2018-08-13T20:57:36.365Z,84.70
2018-08-13T21:00:06.955Z,84.50
2018-08-13T21:02:35.624Z,84.80
2018-08-13T21:05:04.503Z,85.10
2018-08-13T21:07:33.255Z,85.60
2018-08-13T21:10:02.121Z,85.70
2018-08-13T21:12:31.115Z,86.60
2018-08-13T21:14:59.807Z,86.90
2018-08-13T21:17:28.442Z,87.00
2018-08-13T21:19:57.560Z,87.20
2018-08-13T21:22:26.243Z,87.80
2018-08-13T21:24:54.941Z,87.60
2018-08-13T21:27:23.563Z,87.20
2018-08-13T21:29:52.244Z,87.10
2018-08-13T21:32:20.926Z,87.20
2018-08-13T21:34:49.552Z,87.20
2018-08-13T21:37:18.221Z,87.70
2018-08-13T21:39:46.868Z,87.40
2018-08-13T21:42:15.572Z,87.50
2018-08-13T21:44:44.275Z,87.70
2018-08-13T21:47:12.909Z,87.90
2018-08-13T21:49:41.566Z,88.40
2018-08-13T21:52:10.309Z,88.20
2018-08-13T21:54:38.959Z,88.60
2018-08-13T21:57:07.648Z,89.30
2018-08-13T21:59:36.312Z,90.20
2018-08-13T22:02:09.563Z,90.60
2018-08-13T22:04:38.416Z,90.50
2018-08-13T22:07:07.055Z,90.70
2018-08-13T22:09:35.781Z,91.10
2018-08-13T22:12:09.067Z,90.80
2018-08-13T22:14:37.884Z,90.90
2018-08-13T22:17:07.036Z,90.50
2018-08-13T22:19:35.699Z,90.50
2018-08-13T22:22:04.614Z,90.50
2018-08-13T22:25:42.283Z,90.40
2018-08-13T22:28:12.132Z,90.50
2018-08-13T22:30:40.965Z,90.50
2018-08-13T22:33:10.739Z,90.50
2018-08-13T22:35:39.792Z,90.60
2018-08-13T22:38:09.025Z,90.90
2018-08-13T22:40:38.348Z,91.00
2018-08-13T22:43:07.694Z,91.30
2018-08-13T22:45:36.352Z,91.50
2018-08-13T22:48:05.392Z,91.60
2018-08-13T22:50:34.176Z,91.50
2018-08-13T22:53:02.949Z,91.10
2018-08-13T22:55:31.657Z,91.00
2018-08-13T22:58:00.369Z,91.10
2018-08-13T23:00:29.148Z,91.20
2018-08-13T23:02:57.812Z,90.20
2018-08-13T23:05:27.456Z,90.10
2018-08-13T23:07:56.144Z,90.00
2018-08-13T23:10:25.300Z,89.50
2018-08-13T23:12:55.197Z,89.50
2018-08-13T23:15:24.269Z,89.60
2018-08-13T23:17:53.571Z,90.00
2018-08-13T23:20:23.889Z,90.00
2018-08-13T23:23:07.527Z,90.40
2018-08-13T23:25:37.036Z,90.30
2018-08-13T23:28:08.801Z,90.10
2018-08-13T23:30:37.538Z,90.40
2018-08-13T23:33:07.033Z,90.30
2018-08-13T23:35:35.772Z,90.60
2018-08-13T23:38:04.661Z,90.40
2018-08-13T23:40:33.428Z,90.30
2018-08-13T23:43:02.297Z,90.20
2018-08-13T23:45:32.029Z,90.20
2018-08-13T23:48:00.799Z,90.10
2018-08-13T23:50:29.801Z,89.40
2018-08-13T23:52:59.724Z,89.90
2018-08-13T23:55:32.016Z,89.70
2018-08-13T23:58:01.021Z,89.50
